sensor_id;sensor_type;location;lat;lon;timestamp;P1;durP1;ratioP1;P2;durP2;ratioP2
32323;SDS011;25666;44.350;9.222;2022-10-16T00:01:26;17.27;;;6.78;;
32323;SDS011;25666;44.350;9.222;2022-10-16T00:03:54;13.63;;;7.10;;
32323;SDS011;25666;44.350;9.222;2022-10-16T00:06:21;13.50;;;6.70;;
32323;SDS011;25666;44.350;9.222;2022-10-16T00:08:47;16.80;;;6.55;;
32323;SDS011;25666;44.350;9.222;2022-10-16T00:11:18;10.85;;;6.78;;
32323;SDS011;25666;44.350;9.222;2022-10-16T00:13:46;12.07;;;6.95;;
32323;SDS011;25666;44.350;9.222;2022-10-16T00:16:13;14.00;;;6.55;;
32323;SDS011;25666;44.350;9.222;2022-10-16T00:18:40;11.98;;;6.78;;
32323;SDS011;25666;44.350;9.222;2022-10-16T00:21:11;15.43;;;8.02;;
32323;SDS011;25666;44.350;9.222;2022-10-16T00:23:41;10.63;;;6.25;;
32323;SDS011;25666;44.350;9.222;2022-10-16T00:26:08;12.20;;;5.95;;
32323;SDS011;25666;44.350;9.222;2022-10-16T00:28:37;13.77;;;6.30;;
32323;SDS011;25666;44.350;9.222;2022-10-16T00:31:12;17.15;;;6.72;;
32323;SDS011;25666;44.350;9.222;2022-10-16T00:33:38;19.38;;;7.38;;
32323;SDS011;25666;44.350;9.222;2022-10-16T00:36:05;17.70;;;8.23;;
32323;SDS011;25666;44.350;9.222;2022-10-16T00:38:32;11.05;;;7.53;;
32323;SDS011;25666;44.350;9.222;2022-10-16T00:40:57;9.82;;;5.93;;
32323;SDS011;25666;44.350;9.222;2022-10-16T00:46:19;17.85;;;7.03;;
32323;SDS011;25666;44.350;9.222;2022-10-16T00:48:52;11.75;;;6.25;;
32323;SDS011;25666;44.350;9.222;2022-10-16T00:51:31;19.40;;;7.25;;
32323;SDS011;25666;44.350;9.222;2022-10-16T00:53:59;21.27;;;7.40;;
32323;SDS011;25666;44.350;9.222;2022-10-16T00:56:27;14.85;;;6.65;;
32323;SDS011;25666;44.350;9.222;2022-10-16T00:58:53;11.90;;;5.95;;
32323;SDS011;25666;44.350;9.222;2022-10-16T01:01:18;12.48;;;6.20;;
32323;SDS011;25666;44.350;9.222;2022-10-16T01:03:44;11.40;;;7.20;;
32323;SDS011;25666;44.350;9.222;2022-10-16T01:06:21;8.23;;;5.28;;
32323;SDS011;25666;44.350;9.222;2022-10-16T01:09:10;15.93;;;7.13;;
32323;SDS011;25666;44.350;9.222;2022-10-16T01:11:54;11.80;;;6.22;;
32323;SDS011;25666;44.350;9.222;2022-10-16T01:25:36;13.77;;;6.25;;
32323;SDS011;25666;44.350;9.222;2022-10-16T01:28:28;18.38;;;7.28;;
32323;SDS011;25666;44.350;9.222;2022-10-16T01:30:59;14.35;;;7.25;;
32323;SDS011;25666;44.350;9.222;2022-10-16T01:33:28;15.43;;;5.82;;
32323;SDS011;25666;44.350;9.222;2022-10-16T01:36:02;12.50;;;6.50;;
32323;SDS011;25666;44.350;9.222;2022-10-16T01:38:47;15.88;;;7.15;;
32323;SDS011;25666;44.350;9.222;2022-10-16T01:41:24;9.77;;;5.80;;
32323;SDS011;25666;44.350;9.222;2022-10-16T01:44:03;11.43;;;5.90;;
32323;SDS011;25666;44.350;9.222;2022-10-16T01:46:35;16.10;;;5.78;;
32323;SDS011;25666;44.350;9.222;2022-10-16T01:49:02;16.88;;;6.13;;
32323;SDS011;25666;44.350;9.222;2022-10-16T01:51:28;11.05;;;5.65;;
32323;SDS011;25666;44.350;9.222;2022-10-16T01:53:55;15.07;;;6.15;;
32323;SDS011;25666;44.350;9.222;2022-10-16T01:56:23;20.27;;;6.47;;
32323;SDS011;25666;44.350;9.222;2022-10-16T02:01:35;11.52;;;6.15;;
32323;SDS011;25666;44.350;9.222;2022-10-16T02:04:09;15.27;;;7.20;;
32323;SDS011;25666;44.350;9.222;2022-10-16T02:06:42;16.45;;;6.45;;
32323;SDS011;25666;44.350;9.222;2022-10-16T02:09:08;7.15;;;5.07;;
32323;SDS011;25666;44.350;9.222;2022-10-16T02:11:34;12.00;;;5.60;;
32323;SDS011;25666;44.350;9.222;2022-10-16T02:14:06;16.17;;;6.50;;
32323;SDS011;25666;44.350;9.222;2022-10-16T02:16:42;11.40;;;6.30;;
32323;SDS011;25666;44.350;9.222;2022-10-16T02:19:13;21.60;;;5.35;;
32323;SDS011;25666;44.350;9.222;2022-10-16T02:21:49;12.30;;;6.20;;
32323;SDS011;25666;44.350;9.222;2022-10-16T02:27:07;10.45;;;5.55;;
32323;SDS011;25666;44.350;9.222;2022-10-16T02:29:36;11.68;;;5.65;;
32323;SDS011;25666;44.350;9.222;2022-10-16T02:32:06;15.07;;;5.70;;
32323;SDS011;25666;44.350;9.222;2022-10-16T02:34:35;15.32;;;6.38;;
32323;SDS011;25666;44.350;9.222;2022-10-16T02:37:02;20.17;;;6.22;;
32323;SDS011;25666;44.350;9.222;2022-10-16T02:39:30;16.00;;;6.07;;
32323;SDS011;25666;44.350;9.222;2022-10-16T02:41:56;21.58;;;6.32;;
32323;SDS011;25666;44.350;9.222;2022-10-16T02:44:21;13.48;;;5.88;;
32323;SDS011;25666;44.350;9.222;2022-10-16T02:46:47;21.05;;;7.10;;
32323;SDS011;25666;44.350;9.222;2022-10-16T02:49:12;11.43;;;5.70;;
32323;SDS011;25666;44.350;9.222;2022-10-16T02:51:38;9.88;;;5.18;;
32323;SDS011;25666;44.350;9.222;2022-10-16T02:54:04;13.07;;;5.95;;
32323;SDS011;25666;44.350;9.222;2022-10-16T02:56:29;18.83;;;5.90;;
32323;SDS011;25666;44.350;9.222;2022-10-16T02:58:56;13.10;;;5.95;;
32323;SDS011;25666;44.350;9.222;2022-10-16T03:01:21;13.30;;;6.00;;
32323;SDS011;25666;44.350;9.222;2022-10-16T03:03:47;11.55;;;5.75;;
32323;SDS011;25666;44.350;9.222;2022-10-16T03:06:12;13.63;;;5.78;;
32323;SDS011;25666;44.350;9.222;2022-10-16T03:08:38;20.33;;;6.40;;
32323;SDS011;25666;44.350;9.222;2022-10-16T03:11:04;11.98;;;5.90;;
32323;SDS011;25666;44.350;9.222;2022-10-16T03:13:29;13.52;;;5.30;;
32323;SDS011;25666;44.350;9.222;2022-10-16T03:15:55;10.73;;;5.22;;
32323;SDS011;25666;44.350;9.222;2022-10-16T03:18:20;13.02;;;5.72;;
32323;SDS011;25666;44.350;9.222;2022-10-16T03:20:46;7.60;;;5.05;;
32323;SDS011;25666;44.350;9.222;2022-10-16T03:23:11;11.77;;;5.78;;
32323;SDS011;25666;44.350;9.222;2022-10-16T03:25:37;10.20;;;5.10;;
32323;SDS011;25666;44.350;9.222;2022-10-16T03:28:03;11.20;;;6.22;;
32323;SDS011;25666;44.350;9.222;2022-10-16T03:30:28;12.40;;;6.05;;
32323;SDS011;25666;44.350;9.222;2022-10-16T03:32:54;10.98;;;6.57;;
32323;SDS011;25666;44.350;9.222;2022-10-16T03:35:20;15.57;;;6.78;;
32323;SDS011;25666;44.350;9.222;2022-10-16T03:37:46;11.35;;;6.13;;
32323;SDS011;25666;44.350;9.222;2022-10-16T03:40:11;9.10;;;5.72;;
32323;SDS011;25666;44.350;9.222;2022-10-16T03:42:37;14.18;;;6.28;;
32323;SDS011;25666;44.350;9.222;2022-10-16T03:45:03;9.52;;;5.97;;
32323;SDS011;25666;44.350;9.222;2022-10-16T03:47:29;16.45;;;6.50;;
32323;SDS011;25666;44.350;9.222;2022-10-16T03:49:55;16.02;;;6.25;;
32323;SDS011;25666;44.350;9.222;2022-10-16T03:52:21;9.30;;;5.60;;
32323;SDS011;25666;44.350;9.222;2022-10-16T03:54:46;18.33;;;6.88;;
32323;SDS011;25666;44.350;9.222;2022-10-16T03:57:12;10.15;;;5.50;;
32323;SDS011;25666;44.350;9.222;2022-10-16T03:59:37;8.13;;;5.20;;
32323;SDS011;25666;44.350;9.222;2022-10-16T04:02:03;11.23;;;5.40;;
32323;SDS011;25666;44.350;9.222;2022-10-16T04:04:28;16.55;;;5.80;;
32323;SDS011;25666;44.350;9.222;2022-10-16T04:06:54;14.15;;;6.53;;
32323;SDS011;25666;44.350;9.222;2022-10-16T04:09:19;16.42;;;6.68;;
32323;SDS011;25666;44.350;9.222;2022-10-16T04:11:45;19.38;;;9.50;;
32323;SDS011;25666;44.350;9.222;2022-10-16T04:14:10;14.38;;;7.32;;
32323;SDS011;25666;44.350;9.222;2022-10-16T04:16:36;13.68;;;5.97;;
32323;SDS011;25666;44.350;9.222;2022-10-16T04:19:02;8.80;;;5.47;;
32323;SDS011;25666;44.350;9.222;2022-10-16T04:21:27;12.13;;;5.00;;
32323;SDS011;25666;44.350;9.222;2022-10-16T04:23:53;11.80;;;5.57;;
32323;SDS011;25666;44.350;9.222;2022-10-16T04:26:18;12.20;;;6.28;;
32323;SDS011;25666;44.350;9.222;2022-10-16T04:28:44;12.52;;;6.07;;
32323;SDS011;25666;44.350;9.222;2022-10-16T04:31:09;18.15;;;5.85;;
32323;SDS011;25666;44.350;9.222;2022-10-16T04:33:35;16.70;;;5.93;;
32323;SDS011;25666;44.350;9.222;2022-10-16T04:36:00;12.25;;;5.25;;
32323;SDS011;25666;44.350;9.222;2022-10-16T04:38:27;11.20;;;6.15;;
32323;SDS011;25666;44.350;9.222;2022-10-16T04:40:53;14.90;;;6.40;;
32323;SDS011;25666;44.350;9.222;2022-10-16T04:43:18;14.70;;;5.70;;
32323;SDS011;25666;44.350;9.222;2022-10-16T04:45:44;12.13;;;6.28;;
32323;SDS011;25666;44.350;9.222;2022-10-16T04:48:09;15.07;;;6.95;;
32323;SDS011;25666;44.350;9.222;2022-10-16T04:50:35;14.15;;;5.35;;
32323;SDS011;25666;44.350;9.222;2022-10-16T04:53:04;15.40;;;7.28;;
32323;SDS011;25666;44.350;9.222;2022-10-16T04:55:30;12.63;;;6.55;;
32323;SDS011;25666;44.350;9.222;2022-10-16T04:57:56;16.58;;;6.80;;
32323;SDS011;25666;44.350;9.222;2022-10-16T05:00:21;15.85;;;6.25;;
32323;SDS011;25666;44.350;9.222;2022-10-16T05:02:47;14.68;;;6.93;;
32323;SDS011;25666;44.350;9.222;2022-10-16T05:05:14;32.78;;;6.88;;
32323;SDS011;25666;44.350;9.222;2022-10-16T05:07:40;25.95;;;7.03;;
32323;SDS011;25666;44.350;9.222;2022-10-16T05:10:05;12.82;;;6.28;;
32323;SDS011;25666;44.350;9.222;2022-10-16T05:12:31;12.65;;;6.90;;
32323;SDS011;25666;44.350;9.222;2022-10-16T05:14:57;12.23;;;5.72;;
32323;SDS011;25666;44.350;9.222;2022-10-16T05:17:24;14.25;;;6.60;;
32323;SDS011;25666;44.350;9.222;2022-10-16T05:19:50;15.40;;;6.00;;
32323;SDS011;25666;44.350;9.222;2022-10-16T05:22:15;12.40;;;5.82;;
32323;SDS011;25666;44.350;9.222;2022-10-16T05:24:41;30.70;;;14.23;;
32323;SDS011;25666;44.350;9.222;2022-10-16T05:27:06;17.27;;;6.85;;
32323;SDS011;25666;44.350;9.222;2022-10-16T05:29:32;12.88;;;6.57;;
32323;SDS011;25666;44.350;9.222;2022-10-16T05:31:57;16.00;;;6.55;;
32323;SDS011;25666;44.350;9.222;2022-10-16T05:34:23;16.27;;;6.43;;
32323;SDS011;25666;44.350;9.222;2022-10-16T05:36:49;12.38;;;6.10;;
32323;SDS011;25666;44.350;9.222;2022-10-16T05:39:15;14.32;;;7.25;;
32323;SDS011;25666;44.350;9.222;2022-10-16T05:41:41;15.23;;;6.60;;
32323;SDS011;25666;44.350;9.222;2022-10-16T05:44:07;13.75;;;6.10;;
32323;SDS011;25666;44.350;9.222;2022-10-16T05:46:33;9.68;;;5.97;;
32323;SDS011;25666;44.350;9.222;2022-10-16T05:48:59;17.02;;;7.28;;
32323;SDS011;25666;44.350;9.222;2022-10-16T05:51:24;15.75;;;6.53;;
32323;SDS011;25666;44.350;9.222;2022-10-16T05:53:50;9.68;;;6.50;;
32323;SDS011;25666;44.350;9.222;2022-10-16T05:56:16;15.63;;;6.50;;
32323;SDS011;25666;44.350;9.222;2022-10-16T05:58:42;10.15;;;6.15;;
32323;SDS011;25666;44.350;9.222;2022-10-16T06:01:13;14.90;;;6.80;;
32323;SDS011;25666;44.350;9.222;2022-10-16T06:03:41;16.08;;;6.93;;
32323;SDS011;25666;44.350;9.222;2022-10-16T06:06:16;13.43;;;5.90;;
32323;SDS011;25666;44.350;9.222;2022-10-16T06:08:47;10.65;;;6.07;;
32323;SDS011;25666;44.350;9.222;2022-10-16T06:11:14;13.90;;;6.25;;
32323;SDS011;25666;44.350;9.222;2022-10-16T06:13:51;8.65;;;4.93;;
32323;SDS011;25666;44.350;9.222;2022-10-16T06:16:17;9.82;;;5.57;;
32323;SDS011;25666;44.350;9.222;2022-10-16T06:18:43;15.82;;;6.70;;
32323;SDS011;25666;44.350;9.222;2022-10-16T06:21:12;13.05;;;6.97;;
32323;SDS011;25666;44.350;9.222;2022-10-16T06:23:45;12.38;;;6.22;;
32323;SDS011;25666;44.350;9.222;2022-10-16T06:26:12;12.75;;;7.75;;
32323;SDS011;25666;44.350;9.222;2022-10-16T06:28:38;10.65;;;5.95;;
32323;SDS011;25666;44.350;9.222;2022-10-16T06:31:05;15.32;;;7.60;;
32323;SDS011;25666;44.350;9.222;2022-10-16T06:33:32;14.63;;;6.40;;
32323;SDS011;25666;44.350;9.222;2022-10-16T06:36:04;11.25;;;5.68;;
32323;SDS011;25666;44.350;9.222;2022-10-16T06:38:32;14.88;;;7.40;;
32323;SDS011;25666;44.350;9.222;2022-10-16T06:40:58;13.95;;;6.35;;
32323;SDS011;25666;44.350;9.222;2022-10-16T06:43:23;14.05;;;7.32;;
32323;SDS011;25666;44.350;9.222;2022-10-16T06:45:50;11.68;;;6.60;;
32323;SDS011;25666;44.350;9.222;2022-10-16T06:48:17;16.75;;;7.43;;
32323;SDS011;25666;44.350;9.222;2022-10-16T06:50:43;14.20;;;6.55;;
32323;SDS011;25666;44.350;9.222;2022-10-16T06:53:08;14.60;;;7.38;;
32323;SDS011;25666;44.350;9.222;2022-10-16T06:55:34;17.73;;;7.75;;
32323;SDS011;25666;44.350;9.222;2022-10-16T06:57:59;12.73;;;6.40;;
32323;SDS011;25666;44.350;9.222;2022-10-16T07:00:24;10.65;;;5.35;;
32323;SDS011;25666;44.350;9.222;2022-10-16T07:02:50;21.60;;;5.57;;
32323;SDS011;25666;44.350;9.222;2022-10-16T07:05:15;13.70;;;5.28;;
32323;SDS011;25666;44.350;9.222;2022-10-16T07:07:41;8.82;;;5.03;;
32323;SDS011;25666;44.350;9.222;2022-10-16T07:10:07;11.05;;;5.10;;
32323;SDS011;25666;44.350;9.222;2022-10-16T07:12:33;10.68;;;5.97;;
32323;SDS011;25666;44.350;9.222;2022-10-16T07:14:58;12.75;;;5.10;;
32323;SDS011;25666;44.350;9.222;2022-10-16T07:17:24;7.85;;;5.20;;
32323;SDS011;25666;44.350;9.222;2022-10-16T07:19:50;10.98;;;5.88;;
32323;SDS011;25666;44.350;9.222;2022-10-16T07:22:17;9.25;;;5.53;;
32323;SDS011;25666;44.350;9.222;2022-10-16T07:24:43;12.88;;;5.75;;
32323;SDS011;25666;44.350;9.222;2022-10-16T07:27:09;19.27;;;7.25;;
32323;SDS011;25666;44.350;9.222;2022-10-16T07:29:35;11.50;;;5.28;;
32323;SDS011;25666;44.350;9.222;2022-10-16T07:32:01;10.50;;;5.82;;
32323;SDS011;25666;44.350;9.222;2022-10-16T07:34:27;16.48;;;6.00;;
32323;SDS011;25666;44.350;9.222;2022-10-16T07:36:52;10.45;;;5.40;;
32323;SDS011;25666;44.350;9.222;2022-10-16T07:39:18;16.80;;;7.03;;
32323;SDS011;25666;44.350;9.222;2022-10-16T07:41:44;14.25;;;5.47;;
32323;SDS011;25666;44.350;9.222;2022-10-16T07:44:09;13.15;;;5.03;;
32323;SDS011;25666;44.350;9.222;2022-10-16T07:46:35;14.70;;;5.95;;
32323;SDS011;25666;44.350;9.222;2022-10-16T07:49:01;14.20;;;5.80;;
32323;SDS011;25666;44.350;9.222;2022-10-16T07:51:28;13.32;;;6.28;;
32323;SDS011;25666;44.350;9.222;2022-10-16T07:53:53;13.63;;;5.38;;
32323;SDS011;25666;44.350;9.222;2022-10-16T07:56:20;23.08;;;7.00;;
32323;SDS011;25666;44.350;9.222;2022-10-16T07:58:46;12.05;;;5.78;;
32323;SDS011;25666;44.350;9.222;2022-10-16T08:01:14;10.77;;;5.85;;
32323;SDS011;25666;44.350;9.222;2022-10-16T08:03:42;16.73;;;6.10;;
32323;SDS011;25666;44.350;9.222;2022-10-16T08:06:08;11.32;;;5.85;;
32323;SDS011;25666;44.350;9.222;2022-10-16T08:08:34;15.68;;;6.57;;
32323;SDS011;25666;44.350;9.222;2022-10-16T08:11:00;13.90;;;6.57;;
32323;SDS011;25666;44.350;9.222;2022-10-16T08:13:28;14.88;;;5.93;;
32323;SDS011;25666;44.350;9.222;2022-10-16T08:15:54;11.65;;;5.43;;
32323;SDS011;25666;44.350;9.222;2022-10-16T08:18:19;12.30;;;6.25;;
32323;SDS011;25666;44.350;9.222;2022-10-16T08:20:45;13.88;;;5.68;;
32323;SDS011;25666;44.350;9.222;2022-10-16T08:23:11;12.63;;;5.57;;
32323;SDS011;25666;44.350;9.222;2022-10-16T08:25:37;14.35;;;5.30;;
32323;SDS011;25666;44.350;9.222;2022-10-16T08:28:04;18.73;;;5.97;;
32323;SDS011;25666;44.350;9.222;2022-10-16T08:30:30;7.78;;;4.32;;
32323;SDS011;25666;44.350;9.222;2022-10-16T08:32:56;10.52;;;3.90;;
32323;SDS011;25666;44.350;9.222;2022-10-16T08:35:23;10.15;;;4.00;;
32323;SDS011;25666;44.350;9.222;2022-10-16T08:37:48;5.63;;;3.42;;
32323;SDS011;25666;44.350;9.222;2022-10-16T08:42:54;5.43;;;3.40;;
32323;SDS011;25666;44.350;9.222;2022-10-16T08:45:37;5.78;;;3.38;;
32323;SDS011;25666;44.350;9.222;2022-10-16T08:50:43;5.10;;;3.22;;
32323;SDS011;25666;44.350;9.222;2022-10-16T08:53:18;6.40;;;2.58;;
32323;SDS011;25666;44.350;9.222;2022-10-16T08:55:50;6.82;;;2.90;;
32323;SDS011;25666;44.350;9.222;2022-10-16T08:58:20;7.63;;;2.70;;
32323;SDS011;25666;44.350;9.222;2022-10-16T09:00:48;4.27;;;2.30;;
32323;SDS011;25666;44.350;9.222;2022-10-16T09:11:56;4.90;;;2.40;;
32323;SDS011;25666;44.350;9.222;2022-10-16T09:14:38;7.75;;;2.70;;
32323;SDS011;25666;44.350;9.222;2022-10-16T09:19:50;6.80;;;2.75;;
32323;SDS011;25666;44.350;9.222;2022-10-16T09:22:18;5.28;;;2.63;;
32323;SDS011;25666;44.350;9.222;2022-10-16T09:24:49;5.95;;;3.33;;
32323;SDS011;25666;44.350;9.222;2022-10-16T09:27:15;5.85;;;3.60;;
32323;SDS011;25666;44.350;9.222;2022-10-16T09:29:40;7.10;;;3.45;;
32323;SDS011;25666;44.350;9.222;2022-10-16T09:32:17;4.53;;;2.88;;
32323;SDS011;25666;44.350;9.222;2022-10-16T09:34:52;7.00;;;2.92;;
32323;SDS011;25666;44.350;9.222;2022-10-16T09:37:21;9.55;;;3.00;;
32323;SDS011;25666;44.350;9.222;2022-10-16T09:39:52;10.27;;;3.22;;
32323;SDS011;25666;44.350;9.222;2022-10-16T09:42:19;4.57;;;3.20;;
32323;SDS011;25666;44.350;9.222;2022-10-16T09:44:52;9.10;;;2.85;;
32323;SDS011;25666;44.350;9.222;2022-10-16T09:47:23;3.65;;;2.63;;
32323;SDS011;25666;44.350;9.222;2022-10-16T09:49:54;4.03;;;2.50;;
32323;SDS011;25666;44.350;9.222;2022-10-16T09:52:26;4.82;;;2.92;;
32323;SDS011;25666;44.350;9.222;2022-10-16T09:54:56;5.68;;;2.72;;
32323;SDS011;25666;44.350;9.222;2022-10-16T09:57:23;6.68;;;2.78;;
32323;SDS011;25666;44.350;9.222;2022-10-16T09:59:50;5.63;;;2.97;;
32323;SDS011;25666;44.350;9.222;2022-10-16T10:02:36;7.82;;;3.10;;
32323;SDS011;25666;44.350;9.222;2022-10-16T10:05:04;4.47;;;3.05;;
32323;SDS011;25666;44.350;9.222;2022-10-16T10:07:43;6.70;;;3.42;;
32323;SDS011;25666;44.350;9.222;2022-10-16T10:10:32;6.07;;;3.30;;
32323;SDS011;25666;44.350;9.222;2022-10-16T10:12:57;4.85;;;2.75;;
32323;SDS011;25666;44.350;9.222;2022-10-16T10:15:24;9.13;;;3.50;;
32323;SDS011;25666;44.350;9.222;2022-10-16T10:17:53;5.80;;;3.33;;
32323;SDS011;25666;44.350;9.222;2022-10-16T10:20:35;8.40;;;3.00;;
32323;SDS011;25666;44.350;9.222;2022-10-16T10:23:21;4.25;;;3.08;;
32323;SDS011;25666;44.350;9.222;2022-10-16T10:31:35;8.65;;;3.67;;
32323;SDS011;25666;44.350;9.222;2022-10-16T10:34:32;7.55;;;3.38;;
32323;SDS011;25666;44.350;9.222;2022-10-16T10:40:02;7.38;;;3.85;;
32323;SDS011;25666;44.350;9.222;2022-10-16T10:45:50;8.52;;;4.10;;
32323;SDS011;25666;44.350;9.222;2022-10-16T10:51:06;5.88;;;3.38;;
32323;SDS011;25666;44.350;9.222;2022-10-16T10:56:19;7.20;;;3.30;;
32323;SDS011;25666;44.350;9.222;2022-10-16T10:58:55;8.57;;;3.25;;
32323;SDS011;25666;44.350;9.222;2022-10-16T11:04:50;7.88;;;3.33;;
32323;SDS011;25666;44.350;9.222;2022-10-16T11:07:47;7.30;;;4.30;;
32323;SDS011;25666;44.350;9.222;2022-10-16T11:10:20;9.27;;;3.95;;
32323;SDS011;25666;44.350;9.222;2022-10-16T11:12:59;8.18;;;4.22;;
32323;SDS011;25666;44.350;9.222;2022-10-16T11:18:11;15.93;;;4.40;;
32323;SDS011;25666;44.350;9.222;2022-10-16T11:20:52;7.45;;;3.78;;
32323;SDS011;25666;44.350;9.222;2022-10-16T11:23:24;6.85;;;3.33;;
32323;SDS011;25666;44.350;9.222;2022-10-16T11:25:54;4.38;;;2.92;;
32323;SDS011;25666;44.350;9.222;2022-10-16T11:28:32;6.57;;;3.45;;
32323;SDS011;25666;44.350;9.222;2022-10-16T11:31:21;9.27;;;3.28;;
32323;SDS011;25666;44.350;9.222;2022-10-16T11:34:34;5.55;;;3.17;;
32323;SDS011;25666;44.350;9.222;2022-10-16T11:36:51;5.28;;;2.30;;
32323;SDS011;25666;44.350;9.222;2022-10-16T11:39:25;3.40;;;2.58;;
32323;SDS011;25666;44.350;9.222;2022-10-16T11:41:59;4.72;;;2.50;;
32323;SDS011;25666;44.350;9.222;2022-10-16T11:55:42;4.18;;;2.40;;
32323;SDS011;25666;44.350;9.222;2022-10-16T12:00:44;4.28;;;2.30;;
32323;SDS011;25666;44.350;9.222;2022-10-16T12:06:28;4.05;;;2.20;;
32323;SDS011;25666;44.350;9.222;2022-10-16T12:09:26;6.63;;;2.60;;
32323;SDS011;25666;44.350;9.222;2022-10-16T12:11:54;5.63;;;2.15;;
32323;SDS011;25666;44.350;9.222;2022-10-16T12:14:21;5.00;;;2.15;;
32323;SDS011;25666;44.350;9.222;2022-10-16T12:16:58;4.03;;;2.58;;
32323;SDS011;25666;44.350;9.222;2022-10-16T12:19:56;4.63;;;2.50;;
32323;SDS011;25666;44.350;9.222;2022-10-16T12:22:49;3.72;;;2.60;;
32323;SDS011;25666;44.350;9.222;2022-10-16T12:27:59;5.68;;;2.72;;
32323;SDS011;25666;44.350;9.222;2022-10-16T12:30:37;7.40;;;3.55;;
32323;SDS011;25666;44.350;9.222;2022-10-16T12:33:04;9.75;;;3.60;;
32323;SDS011;25666;44.350;9.222;2022-10-16T12:35:35;7.45;;;3.45;;
32323;SDS011;25666;44.350;9.222;2022-10-16T12:38:17;13.30;;;3.25;;
32323;SDS011;25666;44.350;9.222;2022-10-16T12:40:45;7.47;;;4.53;;
32323;SDS011;25666;44.350;9.222;2022-10-16T12:45:45;6.15;;;3.20;;
32323;SDS011;25666;44.350;9.222;2022-10-16T12:48:21;4.72;;;3.25;;
32323;SDS011;25666;44.350;9.222;2022-10-16T12:50:47;12.32;;;3.67;;
32323;SDS011;25666;44.350;9.222;2022-10-16T12:53:20;9.57;;;3.03;;
32323;SDS011;25666;44.350;9.222;2022-10-16T13:01:21;6.95;;;3.13;;
32323;SDS011;25666;44.350;9.222;2022-10-16T13:06:50;5.88;;;2.97;;
32323;SDS011;25666;44.350;9.222;2022-10-16T13:09:39;5.72;;;2.67;;
32323;SDS011;25666;44.350;9.222;2022-10-16T13:18:02;7.18;;;2.67;;
32323;SDS011;25666;44.350;9.222;2022-10-16T13:28:41;8.25;;;3.00;;
32323;SDS011;25666;44.350;9.222;2022-10-16T13:31:13;11.23;;;2.92;;
32323;SDS011;25666;44.350;9.222;2022-10-16T13:33:48;5.75;;;2.90;;
32323;SDS011;25666;44.350;9.222;2022-10-16T13:36:25;4.65;;;2.85;;
32323;SDS011;25666;44.350;9.222;2022-10-16T13:39:00;6.13;;;2.65;;
32323;SDS011;25666;44.350;9.222;2022-10-16T13:41:36;4.13;;;2.63;;
32323;SDS011;25666;44.350;9.222;2022-10-16T13:44:02;7.72;;;3.08;;
32323;SDS011;25666;44.350;9.222;2022-10-16T13:46:29;6.68;;;3.33;;
32323;SDS011;25666;44.350;9.222;2022-10-16T13:49:10;5.20;;;2.75;;
32323;SDS011;25666;44.350;9.222;2022-10-16T13:51:40;3.17;;;2.80;;
32323;SDS011;25666;44.350;9.222;2022-10-16T13:54:09;8.13;;;3.20;;
32323;SDS011;25666;44.350;9.222;2022-10-16T13:56:38;5.60;;;3.13;;
32323;SDS011;25666;44.350;9.222;2022-10-16T13:59:06;7.10;;;3.10;;
32323;SDS011;25666;44.350;9.222;2022-10-16T14:01:47;7.65;;;3.10;;
32323;SDS011;25666;44.350;9.222;2022-10-16T14:04:13;3.88;;;2.35;;
32323;SDS011;25666;44.350;9.222;2022-10-16T14:06:40;6.25;;;3.95;;
32323;SDS011;25666;44.350;9.222;2022-10-16T14:09:08;10.07;;;2.92;;
32323;SDS011;25666;44.350;9.222;2022-10-16T14:11:48;5.53;;;2.90;;
32323;SDS011;25666;44.350;9.222;2022-10-16T14:14:17;3.42;;;2.33;;
32323;SDS011;25666;44.350;9.222;2022-10-16T14:16:44;5.28;;;2.58;;
32323;SDS011;25666;44.350;9.222;2022-10-16T14:19:24;5.72;;;2.67;;
32323;SDS011;25666;44.350;9.222;2022-10-16T14:21:52;4.65;;;3.22;;
32323;SDS011;25666;44.350;9.222;2022-10-16T14:27:00;9.85;;;3.22;;
32323;SDS011;25666;44.350;9.222;2022-10-16T14:29:27;4.32;;;3.03;;
32323;SDS011;25666;44.350;9.222;2022-10-16T14:32:00;7.35;;;2.92;;
32323;SDS011;25666;44.350;9.222;2022-10-16T14:37:06;4.25;;;2.65;;
32323;SDS011;25666;44.350;9.222;2022-10-16T14:39:40;6.65;;;2.70;;
32323;SDS011;25666;44.350;9.222;2022-10-16T14:42:16;5.10;;;2.63;;
32323;SDS011;25666;44.350;9.222;2022-10-16T14:44:44;5.35;;;2.70;;
32323;SDS011;25666;44.350;9.222;2022-10-16T14:47:14;5.97;;;3.70;;
32323;SDS011;25666;44.350;9.222;2022-10-16T14:49:47;4.80;;;2.50;;
32323;SDS011;25666;44.350;9.222;2022-10-16T14:52:13;4.70;;;3.00;;
32323;SDS011;25666;44.350;9.222;2022-10-16T14:54:39;4.32;;;2.60;;
32323;SDS011;25666;44.350;9.222;2022-10-16T14:57:05;9.38;;;3.13;;
32323;SDS011;25666;44.350;9.222;2022-10-16T14:59:39;7.00;;;3.38;;
32323;SDS011;25666;44.350;9.222;2022-10-16T15:02:22;3.83;;;2.67;;
32323;SDS011;25666;44.350;9.222;2022-10-16T15:04:53;6.50;;;2.83;;
32323;SDS011;25666;44.350;9.222;2022-10-16T15:07:19;8.18;;;3.55;;
32323;SDS011;25666;44.350;9.222;2022-10-16T15:09:44;7.40;;;3.30;;
32323;SDS011;25666;44.350;9.222;2022-10-16T15:12:10;6.18;;;3.08;;
32323;SDS011;25666;44.350;9.222;2022-10-16T15:14:35;5.07;;;2.78;;
32323;SDS011;25666;44.350;9.222;2022-10-16T15:17:01;5.68;;;3.13;;
32323;SDS011;25666;44.350;9.222;2022-10-16T15:19:27;7.70;;;2.88;;
32323;SDS011;25666;44.350;9.222;2022-10-16T15:21:53;7.40;;;3.20;;
32323;SDS011;25666;44.350;9.222;2022-10-16T15:24:18;4.53;;;2.80;;
32323;SDS011;25666;44.350;9.222;2022-10-16T15:26:44;9.02;;;3.85;;
32323;SDS011;25666;44.350;9.222;2022-10-16T15:29:11;9.43;;;3.58;;
32323;SDS011;25666;44.350;9.222;2022-10-16T15:31:37;11.45;;;3.40;;
32323;SDS011;25666;44.350;9.222;2022-10-16T15:34:11;5.67;;;3.13;;
32323;SDS011;25666;44.350;9.222;2022-10-16T15:36:39;9.57;;;3.80;;
32323;SDS011;25666;44.350;9.222;2022-10-16T15:39:08;9.35;;;3.85;;
32323;SDS011;25666;44.350;9.222;2022-10-16T15:41:40;6.15;;;3.28;;
32323;SDS011;25666;44.350;9.222;2022-10-16T15:44:06;4.18;;;2.92;;
32323;SDS011;25666;44.350;9.222;2022-10-16T15:46:32;6.78;;;4.05;;
32323;SDS011;25666;44.350;9.222;2022-10-16T15:48:59;3.75;;;2.45;;
32323;SDS011;25666;44.350;9.222;2022-10-16T15:51:25;10.50;;;3.38;;
32323;SDS011;25666;44.350;9.222;2022-10-16T15:53:58;4.88;;;3.15;;
32323;SDS011;25666;44.350;9.222;2022-10-16T15:56:26;5.95;;;3.60;;
32323;SDS011;25666;44.350;9.222;2022-10-16T15:58:53;9.80;;;4.15;;
32323;SDS011;25666;44.350;9.222;2022-10-16T16:01:19;9.40;;;3.58;;
32323;SDS011;25666;44.350;9.222;2022-10-16T16:03:45;15.70;;;4.63;;
32323;SDS011;25666;44.350;9.222;2022-10-16T16:06:11;7.03;;;3.90;;
32323;SDS011;25666;44.350;9.222;2022-10-16T16:08:38;8.32;;;3.70;;
32323;SDS011;25666;44.350;9.222;2022-10-16T16:11:05;5.45;;;3.28;;
32323;SDS011;25666;44.350;9.222;2022-10-16T16:13:33;18.45;;;8.57;;
32323;SDS011;25666;44.350;9.222;2022-10-16T16:15:59;7.03;;;4.32;;
32323;SDS011;25666;44.350;9.222;2022-10-16T16:18:25;8.93;;;4.05;;
32323;SDS011;25666;44.350;9.222;2022-10-16T16:20:51;7.70;;;3.92;;
32323;SDS011;25666;44.350;9.222;2022-10-16T16:23:17;7.10;;;3.10;;
32323;SDS011;25666;44.350;9.222;2022-10-16T16:25:42;9.00;;;3.72;;
32323;SDS011;25666;44.350;9.222;2022-10-16T16:28:08;7.70;;;3.70;;
32323;SDS011;25666;44.350;9.222;2022-10-16T16:30:35;13.77;;;3.83;;
32323;SDS011;25666;44.350;9.222;2022-10-16T16:33:02;9.48;;;3.47;;
32323;SDS011;25666;44.350;9.222;2022-10-16T16:35:28;6.25;;;3.55;;
32323;SDS011;25666;44.350;9.222;2022-10-16T16:37:53;8.55;;;3.20;;
32323;SDS011;25666;44.350;9.222;2022-10-16T16:40:19;5.43;;;3.53;;
32323;SDS011;25666;44.350;9.222;2022-10-16T16:42:47;10.55;;;3.95;;